DAL1307 KMCO-KBUF
Flight info
| Callsign | DAL1307 |
|---|---|
| Flight time | 2h 14m |
| Altitude | 35000 |
| Route | FATHE4 VIYAP Q69 RICCS EWC DKK |
| Aircraft | A20N/M-SDE3FGHIRWY/LB1 |
Departure
| Time | 2026-04-22 12:45 |
|---|---|
| Airport | Orlando International Airport (KMCO) |
Arrival
| Time | 2026-04-22 15:00 |
|---|---|
| Airport | Buffalo Niagara International Airport (KBUF) |
| Time | Latitude | Longitude | Altitude | Speed | Heading |
|---|---|---|---|---|---|
| 2026-04-22 12:25 | 28.42756 | -81.30035 | 106 ft | 0 kts | 303° |
| 2026-04-22 12:36 | 28.42755 | -81.30034 | 106 ft | 1 kts | 303° |
| 2026-04-22 12:36 | 28.42744 | -81.30010 | 106 ft | 4 kts | 286° |
| 2026-04-22 12:37 | 28.42740 | -81.29980 | 106 ft | 4 kts | 266° |
| 2026-04-22 12:37 | 28.42740 | -81.29950 | 105 ft | 4 kts | 280° |
| 2026-04-22 12:37 | 28.42738 | -81.29920 | 105 ft | 4 kts | 263° |
| 2026-04-22 12:37 | 28.42745 | -81.29892 | 104 ft | 4 kts | 226° |
| 2026-04-22 12:38 | 28.42760 | -81.29883 | 104 ft | 1 kts | 180° |
| 2026-04-22 12:38 | 28.42764 | -81.29883 | 106 ft | 0 kts | 180° |
| 2026-04-22 12:41 | 28.42737 | -81.29883 | 106 ft | 6 kts | 180° |
| 2026-04-22 12:41 | 28.42681 | -81.29882 | 106 ft | 11 kts | 180° |
| 2026-04-22 12:41 | 28.42605 | -81.29860 | 106 ft | 13 kts | 127° |
| 2026-04-22 12:42 | 28.42539 | -81.29795 | 106 ft | 16 kts | 176° |
| 2026-04-22 12:42 | 28.42402 | -81.29793 | 105 ft | 22 kts | 180° |
| 2026-04-22 12:42 | 28.42246 | -81.29793 | 105 ft | 22 kts | 179° |
| 2026-04-22 12:42 | 28.42087 | -81.29790 | 105 ft | 27 kts | 179° |
| 2026-04-22 12:43 | 28.41896 | -81.29788 | 105 ft | 28 kts | 179° |
| 2026-04-22 12:43 | 28.41689 | -81.29787 | 105 ft | 30 kts | 179° |
| 2026-04-22 12:43 | 28.41484 | -81.29784 | 105 ft | 29 kts | 179° |
| 2026-04-22 12:43 | 28.41282 | -81.29782 | 104 ft | 29 kts | 179° |
| 2026-04-22 12:44 | 28.41086 | -81.29779 | 104 ft | 28 kts | 179° |
| 2026-04-22 12:44 | 28.40894 | -81.29779 | 103 ft | 25 kts | 179° |
| 2026-04-22 12:44 | 28.40820 | -81.29690 | 102 ft | 18 kts | 91° |
| 2026-04-22 12:44 | 28.40851 | -81.29562 | 101 ft | 17 kts | 23° |
| 2026-04-22 12:45 | 28.41022 | -81.29562 | 102 ft | 49 kts | 359° |
| 2026-04-22 12:45 | 28.41612 | -81.29566 | 109 ft | 121 kts | 360° |
| 2026-04-22 12:45 | 28.42686 | -81.29585 | 209 ft | 176 kts | 360° |
| 2026-04-22 12:45 | 28.43975 | -81.29590 | 754 ft | 190 kts | 4° |
| 2026-04-22 12:46 | 28.45298 | -81.29353 | 1484 ft | 196 kts | 19° |
| 2026-04-22 12:46 | 28.46571 | -81.28714 | 2047 ft | 207 kts | 33° |
| 2026-04-22 12:46 | 28.47801 | -81.27802 | 2555 ft | 215 kts | 37° |
| 2026-04-22 12:46 | 28.49119 | -81.26868 | 3022 ft | 232 kts | 34° |
| 2026-04-22 12:47 | 28.50584 | -81.25913 | 3446 ft | 252 kts | 29° |
| 2026-04-22 12:47 | 28.52285 | -81.25309 | 4173 ft | 262 kts | 12° |
| 2026-04-22 12:47 | 28.54113 | -81.25098 | 4744 ft | 266 kts | 6° |
| 2026-04-22 12:47 | 28.55971 | -81.25090 | 4965 ft | 268 kts | 1° |
| 2026-04-22 12:48 | 28.57841 | -81.25188 | 5321 ft | 271 kts | 358° |
| 2026-04-22 12:48 | 28.59728 | -81.25434 | 6124 ft | 275 kts | 356° |
| 2026-04-22 12:48 | 28.61618 | -81.25732 | 6723 ft | 274 kts | 356° |
| 2026-04-22 12:48 | 28.63489 | -81.26009 | 7050 ft | 275 kts | 356° |
| 2026-04-22 12:49 | 28.65408 | -81.26278 | 7694 ft | 280 kts | 356° |
| 2026-04-22 12:49 | 28.67348 | -81.26545 | 8546 ft | 282 kts | 355° |
| 2026-04-22 12:49 | 28.69316 | -81.26815 | 9375 ft | 288 kts | 355° |
| 2026-04-22 12:49 | 28.71321 | -81.27089 | 10133 ft | 294 kts | 355° |
| 2026-04-22 12:50 | 28.73415 | -81.27374 | 10535 ft | 313 kts | 354° |
| 2026-04-22 12:50 | 28.75656 | -81.27679 | 10849 ft | 334 kts | 354° |
| 2026-04-22 12:50 | 28.78034 | -81.28004 | 11148 ft | 354 kts | 354° |
| 2026-04-22 12:50 | 28.80536 | -81.28346 | 11464 ft | 370 kts | 353° |
| 2026-04-22 12:51 | 28.83131 | -81.28701 | 11944 ft | 379 kts | 353° |
| 2026-04-22 12:51 | 28.85776 | -81.28984 | 12563 ft | 385 kts | 355° |
| 2026-04-22 12:51 | 28.88458 | -81.29219 | 13222 ft | 389 kts | 355° |
| 2026-04-22 12:51 | 28.91175 | -81.29448 | 13900 ft | 393 kts | 355° |
| 2026-04-22 12:52 | 28.93914 | -81.29680 | 14524 ft | 397 kts | 354° |
| 2026-04-22 12:52 | 28.96685 | -81.29915 | 15130 ft | 401 kts | 354° |
| 2026-04-22 12:52 | 28.99482 | -81.30168 | 15709 ft | 405 kts | 353° |
| 2026-04-22 12:52 | 29.02298 | -81.30469 | 16320 ft | 409 kts | 353° |
| 2026-04-22 12:53 | 29.05145 | -81.30787 | 16929 ft | 412 kts | 352° |
| 2026-04-22 12:53 | 29.08010 | -81.31108 | 17528 ft | 416 kts | 352° |
| 2026-04-22 12:53 | 29.10901 | -81.31408 | 18119 ft | 420 kts | 353° |
| 2026-04-22 12:53 | 29.13833 | -81.31611 | 18686 ft | 424 kts | 354° |
| 2026-04-22 12:54 | 29.16784 | -81.31786 | 19206 ft | 426 kts | 354° |
| 2026-04-22 12:54 | 29.19748 | -81.31958 | 19765 ft | 427 kts | 354° |
| 2026-04-22 12:54 | 29.22724 | -81.32133 | 20312 ft | 429 kts | 354° |
| 2026-04-22 12:54 | 29.25710 | -81.32310 | 20854 ft | 431 kts | 354° |
| 2026-04-22 12:55 | 29.28717 | -81.32490 | 21320 ft | 435 kts | 353° |
| 2026-04-22 12:55 | 29.31747 | -81.32672 | 21843 ft | 437 kts | 353° |
| 2026-04-22 12:55 | 29.34791 | -81.32855 | 22367 ft | 439 kts | 353° |
| 2026-04-22 12:55 | 29.37845 | -81.33039 | 22887 ft | 441 kts | 353° |
| 2026-04-22 12:56 | 29.40916 | -81.33224 | 23370 ft | 443 kts | 353° |
| 2026-04-22 12:56 | 29.44003 | -81.33410 | 23839 ft | 445 kts | 353° |
| 2026-04-22 12:56 | 29.47101 | -81.33597 | 24230 ft | 448 kts | 353° |
| 2026-04-22 12:56 | 29.50223 | -81.33786 | 24609 ft | 450 kts | 353° |
| 2026-04-22 12:57 | 29.53357 | -81.33975 | 24955 ft | 452 kts | 352° |
| 2026-04-22 12:57 | 29.56505 | -81.34165 | 25296 ft | 456 kts | 352° |
| 2026-04-22 12:57 | 29.59683 | -81.34358 | 25609 ft | 459 kts | 352° |
| 2026-04-22 12:57 | 29.62880 | -81.34552 | 26009 ft | 460 kts | 352° |
| 2026-04-22 12:58 | 29.66082 | -81.34739 | 26401 ft | 462 kts | 352° |
| 2026-04-22 12:58 | 29.69298 | -81.34923 | 26789 ft | 463 kts | 352° |
| 2026-04-22 12:58 | 29.72477 | -81.35104 | 27149 ft | 465 kts | 352° |
| 2026-04-22 12:58 | 29.75713 | -81.35289 | 27522 ft | 466 kts | 352° |
| 2026-04-22 12:59 | 29.78944 | -81.35473 | 28011 ft | 464 kts | 352° |
| 2026-04-22 12:59 | 29.82160 | -81.35656 | 28534 ft | 461 kts | 352° |
| 2026-04-22 12:59 | 29.85357 | -81.35839 | 28962 ft | 462 kts | 352° |
| 2026-04-22 12:59 | 29.88575 | -81.36025 | 29289 ft | 463 kts | 352° |
| 2026-04-22 13:00 | 29.91786 | -81.36209 | 29775 ft | 461 kts | 351° |
| 2026-04-22 13:00 | 29.94980 | -81.36391 | 30323 ft | 458 kts | 351° |
| 2026-04-22 13:00 | 29.98158 | -81.36573 | 30756 ft | 456 kts | 351° |
| 2026-04-22 13:00 | 30.01318 | -81.36755 | 31182 ft | 454 kts | 351° |
| 2026-04-22 13:01 | 30.04465 | -81.36936 | 31595 ft | 451 kts | 351° |
| 2026-04-22 13:01 | 30.07599 | -81.37117 | 31978 ft | 450 kts | 351° |
| 2026-04-22 13:01 | 30.10716 | -81.37297 | 32353 ft | 448 kts | 350° |
| 2026-04-22 13:01 | 30.13825 | -81.37477 | 32714 ft | 447 kts | 350° |
| 2026-04-22 13:02 | 30.16932 | -81.37658 | 33026 ft | 446 kts | 350° |
| 2026-04-22 13:02 | 30.20029 | -81.37836 | 33392 ft | 444 kts | 350° |
| 2026-04-22 13:02 | 30.23108 | -81.38014 | 33761 ft | 442 kts | 350° |
| 2026-04-22 13:02 | 30.26180 | -81.38191 | 34121 ft | 440 kts | 349° |
| 2026-04-22 13:03 | 30.29230 | -81.38368 | 34432 ft | 439 kts | 349° |
| 2026-04-22 13:03 | 30.32274 | -81.38545 | 34707 ft | 437 kts | 349° |
| 2026-04-22 13:03 | 30.35271 | -81.38719 | 34955 ft | 436 kts | 349° |
| 2026-04-22 13:03 | 30.38302 | -81.38895 | 35194 ft | 435 kts | 349° |
| 2026-04-22 13:04 | 30.41334 | -81.39073 | 35311 ft | 437 kts | 349° |
| 2026-04-22 13:04 | 30.47410 | -81.39420 | 35314 ft | 438 kts | 349° |
| 2026-04-22 13:05 | 30.53552 | -81.39747 | 35319 ft | 443 kts | 349° |
| 2026-04-22 13:05 | 30.59721 | -81.40071 | 35324 ft | 443 kts | 349° |
| 2026-04-22 13:06 | 30.65885 | -81.40396 | 35321 ft | 443 kts | 349° |
| 2026-04-22 13:06 | 30.72054 | -81.40723 | 35325 ft | 445 kts | 350° |
| 2026-04-22 13:07 | 30.78243 | -81.41052 | 35312 ft | 445 kts | 350° |
| 2026-04-22 13:07 | 30.84439 | -81.41381 | 35307 ft | 445 kts | 350° |
| 2026-04-22 13:08 | 30.90628 | -81.41710 | 35304 ft | 445 kts | 350° |
| 2026-04-22 13:08 | 30.96825 | -81.42040 | 35316 ft | 446 kts | 350° |
| 2026-04-22 13:09 | 31.03041 | -81.42373 | 35309 ft | 448 kts | 350° |
| 2026-04-22 13:09 | 31.09265 | -81.42706 | 35314 ft | 448 kts | 350° |
| 2026-04-22 13:10 | 31.15500 | -81.43039 | 35312 ft | 448 kts | 350° |
| 2026-04-22 13:10 | 31.21731 | -81.43373 | 35328 ft | 448 kts | 350° |
| 2026-04-22 13:11 | 31.27972 | -81.43641 | 35333 ft | 451 kts | 352° |
| 2026-04-22 13:11 | 31.34268 | -81.43720 | 35330 ft | 453 kts | 352° |
| 2026-04-22 13:12 | 31.40567 | -81.43759 | 35325 ft | 453 kts | 352° |
| 2026-04-22 13:12 | 31.46890 | -81.43504 | 35318 ft | 461 kts | 1° |
| 2026-04-22 13:13 | 31.53179 | -81.41575 | 35318 ft | 471 kts | 11° |
| 2026-04-22 13:13 | 31.59402 | -81.39078 | 35310 ft | 473 kts | 13° |
| 2026-04-22 13:14 | 31.65604 | -81.36475 | 35309 ft | 474 kts | 13° |
| 2026-04-22 13:14 | 31.71815 | -81.33881 | 35305 ft | 473 kts | 13° |
| 2026-04-22 13:15 | 31.78034 | -81.31308 | 35327 ft | 473 kts | 13° |
| 2026-04-22 13:15 | 31.84236 | -81.28749 | 35283 ft | 472 kts | 13° |
| 2026-04-22 13:16 | 31.89386 | -81.26622 | 35288 ft | 472 kts | 13° |
| 2026-04-22 13:16 | 31.96640 | -81.24045 | 35284 ft | 462 kts | 2° |
| 2026-04-22 13:17 | 32.02987 | -81.23371 | 35292 ft | 457 kts | 357° |
| 2026-04-22 13:17 | 32.08302 | -81.23077 | 35320 ft | 455 kts | 356° |
| 2026-04-22 13:18 | 32.14592 | -81.22803 | 35322 ft | 455 kts | 356° |
| 2026-04-22 13:18 | 32.20911 | -81.22518 | 35322 ft | 455 kts | 356° |
| 2026-04-22 13:19 | 32.27236 | -81.22212 | 35318 ft | 455 kts | 357° |
| 2026-04-22 13:19 | 32.33559 | -81.21897 | 35319 ft | 455 kts | 357° |
| 2026-04-22 13:20 | 32.39884 | -81.21579 | 35305 ft | 454 kts | 357° |
| 2026-04-22 13:20 | 32.46196 | -81.21260 | 35305 ft | 455 kts | 358° |
| 2026-04-22 13:21 | 32.52509 | -81.20206 | 35309 ft | 460 kts | 5° |
| 2026-04-22 13:21 | 32.58807 | -81.18807 | 35325 ft | 461 kts | 5° |
| 2026-04-22 13:22 | 32.65101 | -81.17337 | 35306 ft | 461 kts | 6° |
| 2026-04-22 13:22 | 32.71400 | -81.15867 | 35305 ft | 461 kts | 5° |
| 2026-04-22 13:23 | 32.77703 | -81.14406 | 35304 ft | 461 kts | 5° |
| 2026-04-22 13:23 | 32.84006 | -81.12949 | 35308 ft | 461 kts | 5° |
| 2026-04-22 13:24 | 32.90298 | -81.11493 | 35307 ft | 460 kts | 5° |
| 2026-04-22 13:24 | 32.96578 | -81.10036 | 35310 ft | 460 kts | 5° |
| 2026-04-22 13:25 | 33.02860 | -81.08578 | 35313 ft | 460 kts | 5° |
| 2026-04-22 13:25 | 33.09136 | -81.07119 | 35303 ft | 460 kts | 5° |
| 2026-04-22 13:26 | 33.15411 | -81.05658 | 35307 ft | 460 kts | 5° |
| 2026-04-22 13:26 | 33.21687 | -81.04194 | 35307 ft | 460 kts | 5° |
| 2026-04-22 13:27 | 33.27968 | -81.02727 | 35314 ft | 460 kts | 5° |
| 2026-04-22 13:27 | 33.34241 | -81.01260 | 35315 ft | 460 kts | 5° |
| 2026-04-22 13:28 | 33.40523 | -80.99789 | 35319 ft | 460 kts | 6° |
| 2026-04-22 13:28 | 33.46770 | -80.98323 | 35320 ft | 460 kts | 6° |
| 2026-04-22 13:29 | 33.53057 | -80.96846 | 35318 ft | 460 kts | 6° |
| 2026-04-22 13:29 | 33.59344 | -80.95367 | 35294 ft | 460 kts | 6° |
| 2026-04-22 13:30 | 33.65627 | -80.93887 | 35296 ft | 460 kts | 6° |
| 2026-04-22 13:30 | 33.71900 | -80.92405 | 35292 ft | 459 kts | 6° |
| 2026-04-22 13:31 | 33.78164 | -80.90926 | 35303 ft | 459 kts | 5° |
| 2026-04-22 13:31 | 33.84429 | -80.89447 | 35292 ft | 459 kts | 5° |
| 2026-04-22 13:32 | 33.90710 | -80.88183 | 35298 ft | 456 kts | 2° |
| 2026-04-22 13:32 | 33.96977 | -80.87089 | 35293 ft | 454 kts | 2° |
| 2026-04-22 13:33 | 34.03228 | -80.86002 | 35295 ft | 454 kts | 2° |
| 2026-04-22 13:33 | 34.09451 | -80.84896 | 35308 ft | 454 kts | 2° |
| 2026-04-22 13:34 | 34.15702 | -80.83768 | 35308 ft | 455 kts | 2° |
| 2026-04-22 13:34 | 34.21974 | -80.82633 | 35296 ft | 456 kts | 2° |
| 2026-04-22 13:35 | 34.28253 | -80.81495 | 35298 ft | 456 kts | 2° |
| 2026-04-22 13:35 | 34.34532 | -80.80356 | 35297 ft | 456 kts | 2° |
| 2026-04-22 13:36 | 34.40809 | -80.79216 | 35301 ft | 456 kts | 2° |
| 2026-04-22 13:36 | 34.47080 | -80.78074 | 35291 ft | 455 kts | 2° |
| 2026-04-22 13:37 | 34.53351 | -80.76932 | 35282 ft | 455 kts | 2° |
| 2026-04-22 13:37 | 34.59608 | -80.75791 | 35285 ft | 455 kts | 2° |
| 2026-04-22 13:38 | 34.65871 | -80.74647 | 35296 ft | 455 kts | 3° |
| 2026-04-22 13:38 | 34.75224 | -80.72934 | 35284 ft | 452 kts | 3° |
| 2026-04-22 13:39 | 34.81454 | -80.71791 | 35286 ft | 452 kts | 3° |
| 2026-04-22 13:39 | 34.87680 | -80.70648 | 35284 ft | 452 kts | 3° |
| 2026-04-22 13:40 | 34.93901 | -80.69504 | 35280 ft | 451 kts | 4° |
| 2026-04-22 13:40 | 35.00097 | -80.68361 | 35278 ft | 450 kts | 4° |
| 2026-04-22 13:41 | 35.06298 | -80.67218 | 35280 ft | 453 kts | 4° |
| 2026-04-22 13:41 | 35.12601 | -80.66059 | 35280 ft | 464 kts | 4° |
| 2026-04-22 13:42 | 35.18959 | -80.64876 | 35327 ft | 455 kts | 5° |
| 2026-04-22 13:42 | 35.25196 | -80.63701 | 35323 ft | 449 kts | 5° |
| 2026-04-22 13:43 | 35.31288 | -80.62542 | 35294 ft | 443 kts | 5° |
| 2026-04-22 13:43 | 35.37402 | -80.61383 | 35263 ft | 446 kts | 5° |
| 2026-04-22 13:44 | 35.43527 | -80.60259 | 35258 ft | 443 kts | 5° |
| 2026-04-22 13:44 | 35.49603 | -80.59183 | 35251 ft | 440 kts | 5° |
| 2026-04-22 13:45 | 35.55667 | -80.58112 | 35248 ft | 440 kts | 5° |
| 2026-04-22 13:45 | 35.61734 | -80.57043 | 35248 ft | 440 kts | 5° |
| 2026-04-22 13:46 | 35.67801 | -80.55976 | 35245 ft | 440 kts | 5° |
| 2026-04-22 13:46 | 35.73869 | -80.54912 | 35249 ft | 441 kts | 5° |
| 2026-04-22 13:47 | 35.79939 | -80.53850 | 35245 ft | 440 kts | 5° |
| 2026-04-22 13:47 | 35.85998 | -80.52775 | 35231 ft | 441 kts | 4° |
| 2026-04-22 13:48 | 35.92067 | -80.51666 | 35218 ft | 439 kts | 4° |
| 2026-04-22 13:48 | 35.98101 | -80.50568 | 35216 ft | 438 kts | 4° |
| 2026-04-22 13:49 | 36.04114 | -80.49294 | 35214 ft | 439 kts | 7° |
| 2026-04-22 13:49 | 36.10112 | -80.47900 | 35204 ft | 439 kts | 6° |
| 2026-04-22 13:50 | 36.16121 | -80.46648 | 35210 ft | 436 kts | 5° |
| 2026-04-22 13:50 | 36.22062 | -80.45503 | 35219 ft | 434 kts | 5° |
| 2026-04-22 13:51 | 36.28040 | -80.44376 | 35222 ft | 434 kts | 5° |
| 2026-04-22 13:51 | 36.34013 | -80.43246 | 35230 ft | 434 kts | 5° |
| 2026-04-22 13:52 | 36.39986 | -80.42108 | 35235 ft | 434 kts | 5° |
| 2026-04-22 13:52 | 36.45938 | -80.40930 | 35233 ft | 433 kts | 6° |
| 2026-04-22 13:53 | 36.51882 | -80.39714 | 35232 ft | 433 kts | 6° |
| 2026-04-22 13:53 | 36.57830 | -80.38495 | 35198 ft | 433 kts | 6° |
| 2026-04-22 13:54 | 36.63771 | -80.37281 | 35202 ft | 432 kts | 6° |
| 2026-04-22 13:54 | 36.69689 | -80.36070 | 35202 ft | 430 kts | 6° |
| 2026-04-22 13:55 | 36.75602 | -80.34920 | 35196 ft | 430 kts | 4° |
| 2026-04-22 13:55 | 36.81534 | -80.34047 | 35193 ft | 429 kts | 3° |
| 2026-04-22 13:56 | 36.87433 | -80.33256 | 35186 ft | 428 kts | 3° |
| 2026-04-22 13:56 | 36.93337 | -80.32445 | 35194 ft | 426 kts | 3° |
| 2026-04-22 13:57 | 36.99229 | -80.31613 | 35202 ft | 426 kts | 3° |
| 2026-04-22 13:57 | 37.05124 | -80.30773 | 35212 ft | 426 kts | 4° |
| 2026-04-22 13:58 | 37.11014 | -80.29931 | 35224 ft | 425 kts | 4° |
| 2026-04-22 13:58 | 37.16869 | -80.29092 | 35227 ft | 422 kts | 3° |
| 2026-04-22 13:59 | 37.22701 | -80.28257 | 35224 ft | 422 kts | 4° |
| 2026-04-22 13:59 | 37.28542 | -80.27420 | 35179 ft | 422 kts | 4° |
| 2026-04-22 14:00 | 37.34378 | -80.26581 | 35182 ft | 421 kts | 3° |
| 2026-04-22 14:00 | 37.40193 | -80.25744 | 35176 ft | 420 kts | 3° |
| 2026-04-22 14:01 | 37.45998 | -80.24909 | 35168 ft | 420 kts | 3° |
| 2026-04-22 14:01 | 37.51800 | -80.24072 | 35162 ft | 420 kts | 3° |
| 2026-04-22 14:02 | 37.57604 | -80.23234 | 35165 ft | 420 kts | 3° |
| 2026-04-22 14:02 | 37.63406 | -80.22394 | 35169 ft | 420 kts | 3° |
| 2026-04-22 14:03 | 37.69209 | -80.21540 | 35167 ft | 420 kts | 4° |
| 2026-04-22 14:03 | 37.75004 | -80.20677 | 35162 ft | 419 kts | 3° |
| 2026-04-22 14:04 | 37.80800 | -80.19814 | 35174 ft | 419 kts | 4° |
| 2026-04-22 14:04 | 37.85619 | -80.19093 | 35174 ft | 420 kts | 4° |
| 2026-04-22 14:05 | 37.92367 | -80.18081 | 35168 ft | 420 kts | 4° |
| 2026-04-22 14:06 | 38.01076 | -80.16774 | 35147 ft | 420 kts | 4° |
| 2026-04-22 14:06 | 38.05926 | -80.16033 | 35140 ft | 419 kts | 3° |
| 2026-04-22 14:07 | 38.12681 | -80.15022 | 35140 ft | 421 kts | 3° |
| 2026-04-22 14:07 | 38.17523 | -80.14298 | 35138 ft | 421 kts | 3° |
| 2026-04-22 14:08 | 38.23348 | -80.13421 | 35140 ft | 421 kts | 3° |
| 2026-04-22 14:08 | 38.29174 | -80.12543 | 35138 ft | 422 kts | 3° |
| 2026-04-22 14:09 | 38.35000 | -80.11669 | 35155 ft | 422 kts | 3° |
| 2026-04-22 14:09 | 38.40839 | -80.11083 | 35155 ft | 420 kts | 359° |
| 2026-04-22 14:10 | 38.46681 | -80.10799 | 35156 ft | 420 kts | 359° |
| 2026-04-22 14:10 | 38.52528 | -80.10540 | 35165 ft | 421 kts | 359° |
| 2026-04-22 14:11 | 38.58395 | -80.10243 | 35161 ft | 422 kts | 360° |
| 2026-04-22 14:11 | 38.64266 | -80.09922 | 35165 ft | 422 kts | 360° |
| 2026-04-22 14:12 | 38.70133 | -80.09595 | 35166 ft | 422 kts | 360° |
| 2026-04-22 14:12 | 38.75996 | -80.09269 | 35163 ft | 421 kts | 0° |
| 2026-04-22 14:13 | 38.81848 | -80.08945 | 35159 ft | 421 kts | 360° |
| 2026-04-22 14:13 | 38.87660 | -80.08624 | 35160 ft | 421 kts | 360° |
| 2026-04-22 14:14 | 38.93507 | -80.08526 | 35188 ft | 419 kts | 355° |
| 2026-04-22 14:14 | 38.99319 | -80.08830 | 35160 ft | 417 kts | 354° |
| 2026-04-22 14:15 | 39.05115 | -80.09211 | 35146 ft | 417 kts | 354° |
| 2026-04-22 14:15 | 39.10909 | -80.09604 | 35132 ft | 417 kts | 354° |
| 2026-04-22 14:16 | 39.16701 | -80.09990 | 35151 ft | 417 kts | 354° |
| 2026-04-22 14:16 | 39.22480 | -80.10371 | 35136 ft | 416 kts | 354° |
| 2026-04-22 14:17 | 39.28256 | -80.10751 | 35137 ft | 415 kts | 354° |
| 2026-04-22 14:17 | 39.34029 | -80.11132 | 35135 ft | 415 kts | 354° |
| 2026-04-22 14:18 | 39.39804 | -80.11513 | 35120 ft | 415 kts | 354° |
| 2026-04-22 14:18 | 39.45565 | -80.11893 | 35111 ft | 414 kts | 354° |
| 2026-04-22 14:19 | 39.51319 | -80.12275 | 35114 ft | 414 kts | 354° |
| 2026-04-22 14:19 | 39.57078 | -80.12659 | 35114 ft | 414 kts | 354° |
| 2026-04-22 14:20 | 39.65677 | -80.13232 | 35117 ft | 414 kts | 354° |
| 2026-04-22 14:20 | 39.71445 | -80.13616 | 35113 ft | 415 kts | 354° |
| 2026-04-22 14:21 | 39.80090 | -80.14194 | 35108 ft | 415 kts | 354° |
| 2026-04-22 14:22 | 39.88728 | -80.14773 | 35102 ft | 414 kts | 354° |
| 2026-04-22 14:23 | 39.97359 | -80.15352 | 35089 ft | 414 kts | 354° |
| 2026-04-22 14:23 | 40.03108 | -80.15740 | 35088 ft | 414 kts | 354° |
| 2026-04-22 14:24 | 40.08857 | -80.16128 | 35102 ft | 413 kts | 353° |
| 2026-04-22 14:24 | 40.14597 | -80.16515 | 35104 ft | 413 kts | 353° |
| 2026-04-22 14:25 | 40.20313 | -80.16904 | 35097 ft | 409 kts | 353° |
| 2026-04-22 14:25 | 40.26006 | -80.17290 | 35095 ft | 410 kts | 353° |
| 2026-04-22 14:26 | 40.31712 | -80.17676 | 35064 ft | 411 kts | 353° |
| 2026-04-22 14:26 | 40.37421 | -80.18063 | 35055 ft | 411 kts | 353° |
| 2026-04-22 14:27 | 40.43088 | -80.18449 | 35052 ft | 411 kts | 353° |
| 2026-04-22 14:27 | 40.48797 | -80.18838 | 35054 ft | 411 kts | 353° |
| 2026-04-22 14:28 | 40.54496 | -80.19228 | 35054 ft | 410 kts | 353° |
| 2026-04-22 14:28 | 40.60195 | -80.19619 | 35059 ft | 410 kts | 353° |
| 2026-04-22 14:29 | 40.65892 | -80.20009 | 35056 ft | 410 kts | 353° |
| 2026-04-22 14:29 | 40.71557 | -80.20397 | 34624 ft | 405 kts | 353° |
| 2026-04-22 14:29 | 40.74374 | -80.20590 | 34201 ft | 405 kts | 353° |
| 2026-04-22 14:30 | 40.77192 | -80.20785 | 33734 ft | 405 kts | 353° |
| 2026-04-22 14:30 | 40.80012 | -80.20939 | 33262 ft | 408 kts | 357° |
| 2026-04-22 14:30 | 40.82858 | -80.20510 | 32777 ft | 417 kts | 8° |
| 2026-04-22 14:30 | 40.85656 | -80.19383 | 32316 ft | 423 kts | 13° |
| 2026-04-22 14:31 | 40.88432 | -80.18029 | 31860 ft | 427 kts | 16° |
| 2026-04-22 14:31 | 40.91198 | -80.16547 | 31418 ft | 431 kts | 17° |
| 2026-04-22 14:31 | 40.93972 | -80.14998 | 30986 ft | 434 kts | 17° |
| 2026-04-22 14:31 | 40.96760 | -80.13424 | 30550 ft | 437 kts | 17° |
| 2026-04-22 14:32 | 40.99568 | -80.11841 | 30117 ft | 439 kts | 17° |
| 2026-04-22 14:32 | 41.02378 | -80.10266 | 29604 ft | 438 kts | 17° |
| 2026-04-22 14:32 | 41.05182 | -80.08702 | 29101 ft | 436 kts | 17° |
| 2026-04-22 14:32 | 41.07964 | -80.07156 | 28607 ft | 432 kts | 17° |
| 2026-04-22 14:33 | 41.10729 | -80.05625 | 28114 ft | 429 kts | 17° |
| 2026-04-22 14:33 | 41.13478 | -80.04104 | 27657 ft | 426 kts | 17° |
| 2026-04-22 14:33 | 41.16206 | -80.02596 | 27185 ft | 423 kts | 17° |
| 2026-04-22 14:33 | 41.18914 | -80.01097 | 26718 ft | 420 kts | 17° |
| 2026-04-22 14:34 | 41.21605 | -79.99607 | 26263 ft | 418 kts | 17° |
| 2026-04-22 14:34 | 41.24284 | -79.98122 | 25810 ft | 416 kts | 17° |
| 2026-04-22 14:34 | 41.26943 | -79.96647 | 25368 ft | 413 kts | 18° |
| 2026-04-22 14:34 | 41.29591 | -79.95176 | 24926 ft | 411 kts | 18° |
| 2026-04-22 14:35 | 41.32220 | -79.93715 | 24504 ft | 409 kts | 18° |
| 2026-04-22 14:35 | 41.34836 | -79.92259 | 24086 ft | 407 kts | 18° |
| 2026-04-22 14:35 | 41.37441 | -79.90807 | 23674 ft | 405 kts | 18° |
| 2026-04-22 14:35 | 41.40030 | -79.89364 | 23195 ft | 403 kts | 18° |
| 2026-04-22 14:36 | 41.42607 | -79.87925 | 22694 ft | 400 kts | 18° |
| 2026-04-22 14:36 | 41.45163 | -79.86496 | 22209 ft | 396 kts | 18° |
| 2026-04-22 14:36 | 41.47677 | -79.85036 | 21733 ft | 395 kts | 23° |
| 2026-04-22 14:36 | 41.49939 | -79.83017 | 21276 ft | 399 kts | 36° |
| 2026-04-22 14:37 | 41.51853 | -79.80288 | 20862 ft | 413 kts | 48° |
| 2026-04-22 14:37 | 41.53580 | -79.77121 | 20512 ft | 429 kts | 50° |
| 2026-04-22 14:37 | 41.55329 | -79.73872 | 20137 ft | 430 kts | 48° |
| 2026-04-22 14:37 | 41.57270 | -79.70839 | 19777 ft | 431 kts | 42° |
| 2026-04-22 14:38 | 41.59382 | -79.67981 | 19420 ft | 433 kts | 40° |
| 2026-04-22 14:38 | 41.61525 | -79.65153 | 19057 ft | 433 kts | 40° |
| 2026-04-22 14:38 | 41.63666 | -79.62340 | 18704 ft | 431 kts | 40° |
| 2026-04-22 14:38 | 41.65799 | -79.59543 | 18354 ft | 428 kts | 40° |
| 2026-04-22 14:39 | 41.67924 | -79.56762 | 17956 ft | 426 kts | 40° |
| 2026-04-22 14:39 | 41.70039 | -79.53999 | 17557 ft | 424 kts | 40° |
| 2026-04-22 14:39 | 41.72145 | -79.51251 | 17175 ft | 422 kts | 40° |
| 2026-04-22 14:40 | 41.75652 | -79.46680 | 16530 ft | 418 kts | 40° |
| 2026-04-22 14:40 | 41.78405 | -79.43101 | 16020 ft | 415 kts | 40° |
| 2026-04-22 14:40 | 41.80473 | -79.40418 | 15660 ft | 413 kts | 40° |
| 2026-04-22 14:40 | 41.82531 | -79.37748 | 15292 ft | 411 kts | 40° |
| 2026-04-22 14:41 | 41.84584 | -79.35090 | 14919 ft | 409 kts | 40° |
| 2026-04-22 14:41 | 41.86626 | -79.32448 | 14556 ft | 405 kts | 40° |
| 2026-04-22 14:41 | 41.88631 | -79.29855 | 14182 ft | 394 kts | 40° |
| 2026-04-22 14:41 | 41.90581 | -79.27333 | 13838 ft | 384 kts | 40° |
| 2026-04-22 14:42 | 41.92482 | -79.24868 | 13448 ft | 375 kts | 40° |
| 2026-04-22 14:42 | 41.94333 | -79.22463 | 13111 ft | 366 kts | 40° |
| 2026-04-22 14:42 | 41.96143 | -79.20106 | 12809 ft | 360 kts | 40° |
| 2026-04-22 14:42 | 41.97940 | -79.17766 | 12678 ft | 359 kts | 40° |
| 2026-04-22 14:43 | 41.99763 | -79.15477 | 12542 ft | 357 kts | 36° |
| 2026-04-22 14:43 | 42.01738 | -79.13475 | 12415 ft | 354 kts | 31° |
| 2026-04-22 14:43 | 42.03770 | -79.11606 | 12286 ft | 354 kts | 30° |
| 2026-04-22 14:43 | 42.05800 | -79.09755 | 12159 ft | 353 kts | 30° |
| 2026-04-22 14:44 | 42.07832 | -79.07906 | 12030 ft | 352 kts | 30° |
| 2026-04-22 14:44 | 42.09834 | -79.06081 | 11915 ft | 351 kts | 30° |
| 2026-04-22 14:44 | 42.11856 | -79.04242 | 11781 ft | 351 kts | 30° |
| 2026-04-22 14:44 | 42.13879 | -79.02407 | 11665 ft | 350 kts | 30° |
| 2026-04-22 14:45 | 42.15895 | -79.00576 | 11537 ft | 349 kts | 30° |
| 2026-04-22 14:45 | 42.17911 | -78.98746 | 11405 ft | 348 kts | 30° |
| 2026-04-22 14:45 | 42.19922 | -78.96923 | 11323 ft | 348 kts | 30° |
| 2026-04-22 14:45 | 42.21928 | -78.95109 | 11281 ft | 347 kts | 30° |
| 2026-04-22 14:46 | 42.23974 | -78.93266 | 11297 ft | 365 kts | 30° |
| 2026-04-22 14:46 | 42.26140 | -78.91327 | 11301 ft | 378 kts | 30° |
| 2026-04-22 14:46 | 42.28344 | -78.89358 | 11302 ft | 381 kts | 30° |
| 2026-04-22 14:46 | 42.30556 | -78.87382 | 11301 ft | 381 kts | 30° |
| 2026-04-22 14:47 | 42.32766 | -78.85410 | 11302 ft | 381 kts | 30° |
| 2026-04-22 14:47 | 42.34983 | -78.83433 | 11297 ft | 382 kts | 30° |
| 2026-04-22 14:47 | 42.37198 | -78.81462 | 11297 ft | 382 kts | 30° |
| 2026-04-22 14:47 | 42.39414 | -78.79486 | 11297 ft | 381 kts | 30° |
| 2026-04-22 14:48 | 42.41652 | -78.77621 | 11286 ft | 368 kts | 24° |
| 2026-04-22 14:48 | 42.43884 | -78.76166 | 11276 ft | 346 kts | 20° |
| 2026-04-22 14:48 | 42.46023 | -78.74884 | 11265 ft | 327 kts | 20° |
| 2026-04-22 14:48 | 42.48049 | -78.73667 | 11266 ft | 310 kts | 19° |
| 2026-04-22 14:49 | 42.49962 | -78.72505 | 11243 ft | 294 kts | 19° |
| 2026-04-22 14:49 | 42.51795 | -78.71381 | 11012 ft | 286 kts | 19° |
| 2026-04-22 14:49 | 42.53596 | -78.70273 | 10700 ft | 283 kts | 20° |
| 2026-04-22 14:49 | 42.55378 | -78.69180 | 10382 ft | 279 kts | 19° |
| 2026-04-22 14:50 | 42.57141 | -78.68102 | 10079 ft | 276 kts | 20° |
| 2026-04-22 14:50 | 42.58886 | -78.67047 | 9760 ft | 273 kts | 19° |
| 2026-04-22 14:50 | 42.60607 | -78.66015 | 9451 ft | 268 kts | 19° |
| 2026-04-22 14:50 | 42.62292 | -78.65005 | 9156 ft | 263 kts | 19° |
| 2026-04-22 14:51 | 42.63952 | -78.64011 | 8872 ft | 259 kts | 19° |
| 2026-04-22 14:51 | 42.65593 | -78.63032 | 8590 ft | 258 kts | 19° |
| 2026-04-22 14:51 | 42.67235 | -78.62053 | 8313 ft | 258 kts | 19° |
| 2026-04-22 14:51 | 42.68878 | -78.61078 | 8034 ft | 258 kts | 19° |
| 2026-04-22 14:52 | 42.70498 | -78.60117 | 7761 ft | 257 kts | 19° |
| 2026-04-22 14:52 | 42.72135 | -78.59150 | 7486 ft | 256 kts | 19° |
| 2026-04-22 14:52 | 42.73793 | -78.58286 | 7195 ft | 254 kts | 12° |
| 2026-04-22 14:52 | 42.75489 | -78.57675 | 6889 ft | 251 kts | 10° |
| 2026-04-22 14:53 | 42.77184 | -78.57124 | 6536 ft | 251 kts | 9° |
| 2026-04-22 14:53 | 42.78884 | -78.56571 | 6161 ft | 251 kts | 9° |
| 2026-04-22 14:53 | 42.80593 | -78.56021 | 5784 ft | 253 kts | 9° |
| 2026-04-22 14:53 | 42.81750 | -78.55648 | 5525 ft | 253 kts | 9° |
| 2026-04-22 14:54 | 42.83467 | -78.55098 | 5152 ft | 254 kts | 9° |
| 2026-04-22 14:54 | 42.85187 | -78.54547 | 4777 ft | 254 kts | 10° |
| 2026-04-22 14:54 | 42.86908 | -78.53981 | 4403 ft | 255 kts | 10° |
| 2026-04-22 14:54 | 42.88649 | -78.53481 | 4012 ft | 255 kts | 4° |
| 2026-04-22 14:55 | 42.90403 | -78.53464 | 3628 ft | 251 kts | 352° |
| 2026-04-22 14:55 | 42.92136 | -78.53734 | 3317 ft | 250 kts | 349° |
| 2026-04-22 14:55 | 42.93807 | -78.54029 | 3174 ft | 235 kts | 350° |
| 2026-04-22 14:55 | 42.95386 | -78.54287 | 2978 ft | 223 kts | 349° |
| 2026-04-22 14:56 | 42.96849 | -78.54728 | 2733 ft | 209 kts | 332° |
| 2026-04-22 14:56 | 42.98042 | -78.55750 | 2500 ft | 198 kts | 316° |
| 2026-04-22 14:56 | 42.99011 | -78.57046 | 2286 ft | 191 kts | 310° |
| 2026-04-22 14:56 | 42.99812 | -78.58440 | 2013 ft | 182 kts | 302° |
| 2026-04-22 14:57 | 43.00397 | -78.59929 | 1764 ft | 175 kts | 290° |
| 2026-04-22 14:57 | 43.00636 | -78.61521 | 1569 ft | 167 kts | 271° |
| 2026-04-22 14:57 | 43.00536 | -78.62983 | 1681 ft | 145 kts | 254° |
| 2026-04-22 14:57 | 43.00195 | -78.64215 | 1587 ft | 136 kts | 246° |
| 2026-04-22 14:58 | 42.99757 | -78.65343 | 1575 ft | 134 kts | 235° |
| 2026-04-22 14:58 | 42.99120 | -78.66284 | 1479 ft | 136 kts | 225° |
| 2026-04-22 14:58 | 42.98430 | -78.67174 | 1375 ft | 137 kts | 225° |
| 2026-04-22 14:58 | 42.97745 | -78.68068 | 1293 ft | 136 kts | 226° |
| 2026-04-22 14:59 | 42.97072 | -78.68971 | 1251 ft | 136 kts | 227° |
| 2026-04-22 14:59 | 42.96375 | -78.69889 | 1150 ft | 143 kts | 226° |
| 2026-04-22 14:59 | 42.95665 | -78.70825 | 1004 ft | 142 kts | 225° |
| 2026-04-22 14:59 | 42.94962 | -78.71758 | 819 ft | 140 kts | 225° |
| 2026-04-22 15:00 | 42.94282 | -78.72649 | 731 ft | 124 kts | 224° |
| 2026-04-22 15:00 | 42.93806 | -78.73273 | 729 ft | 66 kts | 223° |
| 2026-04-22 15:00 | 42.93591 | -78.73552 | 728 ft | 31 kts | 224° |
| 2026-04-22 15:00 | 42.93467 | -78.73654 | 725 ft | 11 kts | 183° |
| 2026-04-22 15:01 | 42.93400 | -78.73627 | 725 ft | 9 kts | 119° |
| 2026-04-22 15:01 | 42.93423 | -78.73565 | 727 ft | 7 kts | 42° |
| 2026-04-22 15:01 | 42.93458 | -78.73520 | 725 ft | 7 kts | 44° |
| 2026-04-22 15:01 | 42.93509 | -78.73452 | 725 ft | 11 kts | 44° |
| 2026-04-22 15:02 | 42.93564 | -78.73379 | 727 ft | 11 kts | 47° |
| 2026-04-22 15:02 | 42.93577 | -78.73306 | 725 ft | 4 kts | 115° |
| 2026-04-22 15:02 | 42.93563 | -78.73278 | 728 ft | 4 kts | 128° |
| 2026-04-22 15:02 | 42.93540 | -78.73246 | 725 ft | 5 kts | 134° |
| 2026-04-22 15:03 | 42.93520 | -78.73217 | 726 ft | 2 kts | 133° |
| 2026-04-22 15:03 | 42.93520 | -78.73216 | 726 ft | 0 kts | 133° |